sensor_id;sensor_type;location;lat;lon;timestamp;temperature;humidity
14397;DHT22;50653;47.810;13.022;2023-10-09T00:00:46;15.50;99.90
14397;DHT22;50653;47.810;13.022;2023-10-09T00:03:33;15.30;99.90
14397;DHT22;50653;47.810;13.022;2023-10-09T00:06:08;15.30;99.90
14397;DHT22;50653;47.810;13.022;2023-10-09T00:08:49;15.20;99.90
14397;DHT22;50653;47.810;13.022;2023-10-09T00:11:26;15.20;99.90
14397;DHT22;50653;47.810;13.022;2023-10-09T00:14:00;15.40;99.90
14397;DHT22;50653;47.810;13.022;2023-10-09T00:16:41;15.30;99.90
14397;DHT22;50653;47.810;13.022;2023-10-09T00:19:26;15.40;99.90
14397;DHT22;50653;47.810;13.022;2023-10-09T00:22:01;15.30;99.90
14397;DHT22;50653;47.810;13.022;2023-10-09T00:24:35;15.30;99.90
14397;DHT22;50653;47.810;13.022;2023-10-09T00:27:13;15.40;99.90
14397;DHT22;50653;47.810;13.022;2023-10-09T00:30:02;15.50;99.90
14397;DHT22;50653;47.810;13.022;2023-10-09T00:32:38;15.40;99.90
14397;DHT22;50653;47.810;13.022;2023-10-09T00:35:22;15.40;99.90
14397;DHT22;50653;47.810;13.022;2023-10-09T00:38:32;15.40;99.90
14397;DHT22;50653;47.810;13.022;2023-10-09T00:41:15;15.40;99.90
14397;DHT22;50653;47.810;13.022;2023-10-09T00:43:56;15.40;99.90
14397;DHT22;50653;47.810;13.022;2023-10-09T00:46:45;15.50;99.90
14397;DHT22;50653;47.810;13.022;2023-10-09T00:49:28;15.40;99.90
14397;DHT22;50653;47.810;13.022;2023-10-09T00:52:06;15.40;99.90
14397;DHT22;50653;47.810;13.022;2023-10-09T00:54:51;15.30;99.90
14397;DHT22;50653;47.810;13.022;2023-10-09T00:57:31;15.30;99.90
14397;DHT22;50653;47.810;13.022;2023-10-09T01:00:21;15.20;99.90
14397;DHT22;50653;47.810;13.022;2023-10-09T01:03:05;15.40;99.90
14397;DHT22;50653;47.810;13.022;2023-10-09T01:06:00;15.30;99.90
14397;DHT22;50653;47.810;13.022;2023-10-09T01:09:06;15.30;99.90
14397;DHT22;50653;47.810;13.022;2023-10-09T01:11:47;15.20;99.90
14397;DHT22;50653;47.810;13.022;2023-10-09T01:14:36;15.10;99.90
14397;DHT22;50653;47.810;13.022;2023-10-09T01:17:24;15.20;99.90
14397;DHT22;50653;47.810;13.022;2023-10-09T01:20:27;15.20;99.90
14397;DHT22;50653;47.810;13.022;2023-10-09T01:23:05;15.10;99.90
14397;DHT22;50653;47.810;13.022;2023-10-09T01:25:40;15.10;99.90
14397;DHT22;50653;47.810;13.022;2023-10-09T01:28:25;15.10;99.90
14397;DHT22;50653;47.810;13.022;2023-10-09T01:30:57;14.90;99.90
14397;DHT22;50653;47.810;13.022;2023-10-09T01:33:26;15.00;99.90
14397;DHT22;50653;47.810;13.022;2023-10-09T01:36:00;15.10;99.90
14397;DHT22;50653;47.810;13.022;2023-10-09T01:38:40;15.00;99.90
14397;DHT22;50653;47.810;13.022;2023-10-09T01:41:16;14.90;99.90
14397;DHT22;50653;47.810;13.022;2023-10-09T01:44:10;15.10;99.90
14397;DHT22;50653;47.810;13.022;2023-10-09T01:47:07;15.00;99.90
14397;DHT22;50653;47.810;13.022;2023-10-09T01:49:53;15.10;99.90
14397;DHT22;50653;47.810;13.022;2023-10-09T01:52:46;15.10;99.90
14397;DHT22;50653;47.810;13.022;2023-10-09T01:55:34;15.00;99.90
14397;DHT22;50653;47.810;13.022;2023-10-09T01:58:46;15.10;99.90
14397;DHT22;50653;47.810;13.022;2023-10-09T02:01:53;15.00;99.90
14397;DHT22;50653;47.810;13.022;2023-10-09T02:04:26;15.00;99.90
14397;DHT22;50653;47.810;13.022;2023-10-09T02:07:11;15.10;99.90
14397;DHT22;50653;47.810;13.022;2023-10-09T02:09:56;15.10;99.90
14397;DHT22;50653;47.810;13.022;2023-10-09T02:12:31;15.00;99.90
14397;DHT22;50653;47.810;13.022;2023-10-09T02:15:16;15.10;99.90
14397;DHT22;50653;47.810;13.022;2023-10-09T02:21:06;15.20;99.90
14397;DHT22;50653;47.810;13.022;2023-10-09T02:24:05;15.20;99.90
14397;DHT22;50653;47.810;13.022;2023-10-09T02:26:59;15.10;99.90
14397;DHT22;50653;47.810;13.022;2023-10-09T02:30:08;15.30;99.90
14397;DHT22;50653;47.810;13.022;2023-10-09T02:33:15;15.20;99.90
14397;DHT22;50653;47.810;13.022;2023-10-09T02:36:09;15.20;99.90
14397;DHT22;50653;47.810;13.022;2023-10-09T02:39:19;15.20;99.90
14397;DHT22;50653;47.810;13.022;2023-10-09T02:50:13;15.20;99.90
14397;DHT22;50653;47.810;13.022;2023-10-09T02:53:14;15.10;99.90
14397;DHT22;50653;47.810;13.022;2023-10-09T02:56:09;15.20;99.90
14397;DHT22;50653;47.810;13.022;2023-10-09T03:02:46;15.10;99.90
14397;DHT22;50653;47.810;13.022;2023-10-09T03:05:31;15.10;99.90
14397;DHT22;50653;47.810;13.022;2023-10-09T03:08:17;15.10;99.90
14397;DHT22;50653;47.810;13.022;2023-10-09T03:11:24;15.10;99.90
14397;DHT22;50653;47.810;13.022;2023-10-09T03:14:36;15.10;99.90
14397;DHT22;50653;47.810;13.022;2023-10-09T03:17:18;15.10;99.90
14397;DHT22;50653;47.810;13.022;2023-10-09T03:20:11;15.00;99.90
14397;DHT22;50653;47.810;13.022;2023-10-09T03:22:56;15.10;99.90
14397;DHT22;50653;47.810;13.022;2023-10-09T03:25:43;15.10;99.90
14397;DHT22;50653;47.810;13.022;2023-10-09T03:28:42;15.10;99.90
14397;DHT22;50653;47.810;13.022;2023-10-09T03:31:40;15.00;99.90
14397;DHT22;50653;47.810;13.022;2023-10-09T03:34:32;15.10;99.90
14397;DHT22;50653;47.810;13.022;2023-10-09T03:37:27;15.00;99.90
14397;DHT22;50653;47.810;13.022;2023-10-09T03:40:13;14.90;99.90
14397;DHT22;50653;47.810;13.022;2023-10-09T03:43:07;15.00;99.90
14397;DHT22;50653;47.810;13.022;2023-10-09T03:45:57;14.90;99.90
14397;DHT22;50653;47.810;13.022;2023-10-09T03:48:50;15.10;99.90
14397;DHT22;50653;47.810;13.022;2023-10-09T03:51:52;15.10;99.90
14397;DHT22;50653;47.810;13.022;2023-10-09T03:54:26;15.00;99.90
14397;DHT22;50653;47.810;13.022;2023-10-09T03:57:09;14.90;99.90
14397;DHT22;50653;47.810;13.022;2023-10-09T04:00:04;15.00;99.90
14397;DHT22;50653;47.810;13.022;2023-10-09T04:03:20;14.90;99.90
14397;DHT22;50653;47.810;13.022;2023-10-09T04:06:38;15.00;99.90
14397;DHT22;50653;47.810;13.022;2023-10-09T04:09:21;15.00;99.90
14397;DHT22;50653;47.810;13.022;2023-10-09T04:15:12;15.10;99.90
14397;DHT22;50653;47.810;13.022;2023-10-09T04:18:04;15.10;99.90
14397;DHT22;50653;47.810;13.022;2023-10-09T04:21:19;15.00;99.90
14397;DHT22;50653;47.810;13.022;2023-10-09T04:24:25;15.10;99.90
14397;DHT22;50653;47.810;13.022;2023-10-09T04:27:22;15.20;99.90
14397;DHT22;50653;47.810;13.022;2023-10-09T04:30:06;15.00;99.90
14397;DHT22;50653;47.810;13.022;2023-10-09T04:32:52;15.00;99.90
14397;DHT22;50653;47.810;13.022;2023-10-09T04:35:38;15.00;99.90
14397;DHT22;50653;47.810;13.022;2023-10-09T04:38:12;15.00;99.90
14397;DHT22;50653;47.810;13.022;2023-10-09T04:40:46;15.00;99.90
14397;DHT22;50653;47.810;13.022;2023-10-09T04:44:03;15.10;99.90
14397;DHT22;50653;47.810;13.022;2023-10-09T04:46:59;14.90;99.90
14397;DHT22;50653;47.810;13.022;2023-10-09T04:50:19;14.90;99.90
14397;DHT22;50653;47.810;13.022;2023-10-09T04:53:35;14.80;99.90
14397;DHT22;50653;47.810;13.022;2023-10-09T04:56:13;14.80;99.90
14397;DHT22;50653;47.810;13.022;2023-10-09T04:58:51;14.90;99.90
14397;DHT22;50653;47.810;13.022;2023-10-09T05:01:58;15.00;99.90
14397;DHT22;50653;47.810;13.022;2023-10-09T05:04:35;14.90;99.90
14397;DHT22;50653;47.810;13.022;2023-10-09T05:07:26;15.00;99.90
14397;DHT22;50653;47.810;13.022;2023-10-09T05:13:40;14.80;99.90
14397;DHT22;50653;47.810;13.022;2023-10-09T05:16:23;14.80;99.90
14397;DHT22;50653;47.810;13.022;2023-10-09T05:18:58;14.80;99.90
14397;DHT22;50653;47.810;13.022;2023-10-09T05:21:59;14.80;99.90
14397;DHT22;50653;47.810;13.022;2023-10-09T05:24:41;14.90;99.90
14397;DHT22;50653;47.810;13.022;2023-10-09T05:27:30;14.90;99.90
14397;DHT22;50653;47.810;13.022;2023-10-09T05:33:50;14.90;99.90
14397;DHT22;50653;47.810;13.022;2023-10-09T05:36:44;14.80;99.90
14397;DHT22;50653;47.810;13.022;2023-10-09T05:39:33;14.80;99.90
14397;DHT22;50653;47.810;13.022;2023-10-09T05:42:34;14.80;99.90
14397;DHT22;50653;47.810;13.022;2023-10-09T05:45:18;14.80;99.90
14397;DHT22;50653;47.810;13.022;2023-10-09T05:48:04;14.90;99.90
14397;DHT22;50653;47.810;13.022;2023-10-09T05:50:48;15.00;99.90
14397;DHT22;50653;47.810;13.022;2023-10-09T05:53:49;15.00;99.90
14397;DHT22;50653;47.810;13.022;2023-10-09T05:56:43;14.90;99.90
14397;DHT22;50653;47.810;13.022;2023-10-09T05:59:45;15.00;99.90
14397;DHT22;50653;47.810;13.022;2023-10-09T06:02:40;15.10;99.90
14397;DHT22;50653;47.810;13.022;2023-10-09T06:05:56;15.10;99.90
14397;DHT22;50653;47.810;13.022;2023-10-09T06:08:42;15.10;99.90
14397;DHT22;50653;47.810;13.022;2023-10-09T06:11:36;15.10;99.90
14397;DHT22;50653;47.810;13.022;2023-10-09T06:14:02;15.10;99.90
14397;DHT22;50653;47.810;13.022;2023-10-09T06:16:56;15.10;99.90
14397;DHT22;50653;47.810;13.022;2023-10-09T06:19:33;15.30;99.90
14397;DHT22;50653;47.810;13.022;2023-10-09T06:22:24;15.20;99.90
14397;DHT22;50653;47.810;13.022;2023-10-09T06:24:53;15.20;99.90
14397;DHT22;50653;47.810;13.022;2023-10-09T06:27:26;15.20;99.90
14397;DHT22;50653;47.810;13.022;2023-10-09T06:29:58;15.30;99.90
14397;DHT22;50653;47.810;13.022;2023-10-09T06:32:59;15.40;99.90
14397;DHT22;50653;47.810;13.022;2023-10-09T06:35:55;15.40;99.90
14397;DHT22;50653;47.810;13.022;2023-10-09T06:38:23;15.40;99.90
14397;DHT22;50653;47.810;13.022;2023-10-09T06:41:14;15.50;99.90
14397;DHT22;50653;47.810;13.022;2023-10-09T06:43:59;15.50;99.90
14397;DHT22;50653;47.810;13.022;2023-10-09T06:46:54;15.60;99.90
14397;DHT22;50653;47.810;13.022;2023-10-09T06:49:29;15.60;99.90
14397;DHT22;50653;47.810;13.022;2023-10-09T06:51:55;15.60;99.90
14397;DHT22;50653;47.810;13.022;2023-10-09T06:54:32;15.60;99.90
14397;DHT22;50653;47.810;13.022;2023-10-09T06:57:03;15.60;99.90
14397;DHT22;50653;47.810;13.022;2023-10-09T06:59:43;15.60;99.90
14397;DHT22;50653;47.810;13.022;2023-10-09T07:02:32;15.60;99.90
14397;DHT22;50653;47.810;13.022;2023-10-09T07:05:17;15.70;99.90
14397;DHT22;50653;47.810;13.022;2023-10-09T07:07:43;15.70;99.90
14397;DHT22;50653;47.810;13.022;2023-10-09T07:10:32;15.80;99.90
14397;DHT22;50653;47.810;13.022;2023-10-09T07:13:11;15.80;99.90
14397;DHT22;50653;47.810;13.022;2023-10-09T07:15:42;15.90;99.90
14397;DHT22;50653;47.810;13.022;2023-10-09T07:18:27;15.90;99.90
14397;DHT22;50653;47.810;13.022;2023-10-09T07:21:16;16.00;99.90
14397;DHT22;50653;47.810;13.022;2023-10-09T07:23:52;16.10;99.90
14397;DHT22;50653;47.810;13.022;2023-10-09T07:26:24;16.20;99.90
14397;DHT22;50653;47.810;13.022;2023-10-09T07:29:29;16.20;99.90
14397;DHT22;50653;47.810;13.022;2023-10-09T07:31:55;16.30;99.90
14397;DHT22;50653;47.810;13.022;2023-10-09T07:34:24;16.40;99.90
14397;DHT22;50653;47.810;13.022;2023-10-09T07:36:56;16.40;99.90
14397;DHT22;50653;47.810;13.022;2023-10-09T07:39:22;16.50;99.90
14397;DHT22;50653;47.810;13.022;2023-10-09T07:41:48;16.40;99.90
14397;DHT22;50653;47.810;13.022;2023-10-09T07:44:44;16.50;99.90
14397;DHT22;50653;47.810;13.022;2023-10-09T07:47:19;16.50;99.90
14397;DHT22;50653;47.810;13.022;2023-10-09T07:50:03;16.50;99.90
14397;DHT22;50653;47.810;13.022;2023-10-09T07:52:29;16.60;99.90
14397;DHT22;50653;47.810;13.022;2023-10-09T07:54:55;16.60;99.90
14397;DHT22;50653;47.810;13.022;2023-10-09T07:57:27;16.70;99.90
14397;DHT22;50653;47.810;13.022;2023-10-09T08:00:04;16.70;99.90
14397;DHT22;50653;47.810;13.022;2023-10-09T08:02:49;16.80;99.90
14397;DHT22;50653;47.810;13.022;2023-10-09T08:05:17;16.80;99.90
14397;DHT22;50653;47.810;13.022;2023-10-09T08:07:47;16.90;99.90
14397;DHT22;50653;47.810;13.022;2023-10-09T08:10:32;17.00;99.90
14397;DHT22;50653;47.810;13.022;2023-10-09T08:13:01;17.00;99.90
14397;DHT22;50653;47.810;13.022;2023-10-09T08:15:47;17.10;99.90
14397;DHT22;50653;47.810;13.022;2023-10-09T08:18:21;17.20;99.90
14397;DHT22;50653;47.810;13.022;2023-10-09T08:21:18;17.30;99.90
14397;DHT22;50653;47.810;13.022;2023-10-09T08:24:07;17.30;99.90
14397;DHT22;50653;47.810;13.022;2023-10-09T08:26:54;17.30;99.90
14397;DHT22;50653;47.810;13.022;2023-10-09T08:29:39;17.30;99.90
14397;DHT22;50653;47.810;13.022;2023-10-09T08:32:11;17.40;99.90
14397;DHT22;50653;47.810;13.022;2023-10-09T08:35:07;17.50;99.90
14397;DHT22;50653;47.810;13.022;2023-10-09T08:37:53;17.60;99.90
14397;DHT22;50653;47.810;13.022;2023-10-09T08:40:19;17.70;99.90
14397;DHT22;50653;47.810;13.022;2023-10-09T08:42:53;17.70;99.90
14397;DHT22;50653;47.810;13.022;2023-10-09T08:45:22;18.00;99.90
14397;DHT22;50653;47.810;13.022;2023-10-09T08:47:58;17.90;99.90
14397;DHT22;50653;47.810;13.022;2023-10-09T08:50:36;17.90;99.90
14397;DHT22;50653;47.810;13.022;2023-10-09T08:53:12;18.00;99.90
14397;DHT22;50653;47.810;13.022;2023-10-09T08:55:42;18.10;99.90
14397;DHT22;50653;47.810;13.022;2023-10-09T08:58:13;18.10;99.90
14397;DHT22;50653;47.810;13.022;2023-10-09T09:00:47;18.20;99.90
14397;DHT22;50653;47.810;13.022;2023-10-09T09:03:19;18.30;99.90
14397;DHT22;50653;47.810;13.022;2023-10-09T09:06:01;18.40;99.90
14397;DHT22;50653;47.810;13.022;2023-10-09T09:08:33;18.50;99.90
14397;DHT22;50653;47.810;13.022;2023-10-09T09:11:07;18.50;99.90
14397;DHT22;50653;47.810;13.022;2023-10-09T09:13:47;18.50;99.90
14397;DHT22;50653;47.810;13.022;2023-10-09T09:18:50;18.70;99.90
14397;DHT22;50653;47.810;13.022;2023-10-09T09:21:30;18.60;99.90
14397;DHT22;50653;47.810;13.022;2023-10-09T09:24:02;18.80;99.90
14397;DHT22;50653;47.810;13.022;2023-10-09T09:26:36;18.80;99.90
14397;DHT22;50653;47.810;13.022;2023-10-09T09:29:15;18.90;99.90
14397;DHT22;50653;47.810;13.022;2023-10-09T09:31:56;18.90;99.90
14397;DHT22;50653;47.810;13.022;2023-10-09T09:34:59;19.00;99.90
14397;DHT22;50653;47.810;13.022;2023-10-09T09:37:31;19.00;99.90
14397;DHT22;50653;47.810;13.022;2023-10-09T09:40:19;19.10;99.90
14397;DHT22;50653;47.810;13.022;2023-10-09T09:43:01;19.10;99.90
14397;DHT22;50653;47.810;13.022;2023-10-09T09:45:38;19.20;99.90
14397;DHT22;50653;47.810;13.022;2023-10-09T09:48:08;19.20;99.90
14397;DHT22;50653;47.810;13.022;2023-10-09T09:50:36;19.20;99.90
14397;DHT22;50653;47.810;13.022;2023-10-09T09:53:15;19.20;99.90
14397;DHT22;50653;47.810;13.022;2023-10-09T09:55:51;19.30;99.90
14397;DHT22;50653;47.810;13.022;2023-10-09T09:58:24;19.40;99.90
14397;DHT22;50653;47.810;13.022;2023-10-09T10:00:52;19.50;99.90
14397;DHT22;50653;47.810;13.022;2023-10-09T10:03:24;19.60;99.90
14397;DHT22;50653;47.810;13.022;2023-10-09T10:05:52;19.50;99.90
14397;DHT22;50653;47.810;13.022;2023-10-09T10:08:23;19.60;99.90
14397;DHT22;50653;47.810;13.022;2023-10-09T10:10:59;19.60;99.90
14397;DHT22;50653;47.810;13.022;2023-10-09T10:16:11;20.20;99.90
14397;DHT22;50653;47.810;13.022;2023-10-09T10:21:35;20.30;99.90
14397;DHT22;50653;47.810;13.022;2023-10-09T10:32:55;20.90;99.90
14397;DHT22;50653;47.810;13.022;2023-10-09T10:35:23;21.00;99.90
14397;DHT22;50653;47.810;13.022;2023-10-09T10:38:02;21.20;99.90
14397;DHT22;50653;47.810;13.022;2023-10-09T10:40:36;21.10;99.90
14397;DHT22;50653;47.810;13.022;2023-10-09T10:43:20;21.30;99.90
14397;DHT22;50653;47.810;13.022;2023-10-09T10:46:14;21.40;99.90
14397;DHT22;50653;47.810;13.022;2023-10-09T10:49:01;21.50;99.90
14397;DHT22;50653;47.810;13.022;2023-10-09T10:51:47;21.50;99.90
14397;DHT22;50653;47.810;13.022;2023-10-09T10:54:26;21.70;99.90
14397;DHT22;50653;47.810;13.022;2023-10-09T10:56:58;22.00;99.90
14397;DHT22;50653;47.810;13.022;2023-10-09T10:59:31;21.90;99.90
14397;DHT22;50653;47.810;13.022;2023-10-09T11:02:11;22.00;99.90
14397;DHT22;50653;47.810;13.022;2023-10-09T11:04:38;22.00;99.90
14397;DHT22;50653;47.810;13.022;2023-10-09T11:07:05;22.10;99.90
14397;DHT22;50653;47.810;13.022;2023-10-09T11:09:51;22.10;99.90
14397;DHT22;50653;47.810;13.022;2023-10-09T11:12:42;22.20;99.90
14397;DHT22;50653;47.810;13.022;2023-10-09T11:15:13;22.10;99.90
14397;DHT22;50653;47.810;13.022;2023-10-09T11:18:07;22.10;99.90
14397;DHT22;50653;47.810;13.022;2023-10-09T11:20:43;22.00;99.90
14397;DHT22;50653;47.810;13.022;2023-10-09T11:23:22;21.90;99.90
14397;DHT22;50653;47.810;13.022;2023-10-09T11:26:01;22.10;99.90
14397;DHT22;50653;47.810;13.022;2023-10-09T11:28:46;22.10;99.90
14397;DHT22;50653;47.810;13.022;2023-10-09T11:31:22;22.20;99.90
14397;DHT22;50653;47.810;13.022;2023-10-09T11:33:52;22.10;99.90
14397;DHT22;50653;47.810;13.022;2023-10-09T11:36:23;22.20;99.90
14397;DHT22;50653;47.810;13.022;2023-10-09T11:39:02;22.10;99.90
14397;DHT22;50653;47.810;13.022;2023-10-09T11:42:07;22.10;99.90
14397;DHT22;50653;47.810;13.022;2023-10-09T11:44:42;22.00;99.90
14397;DHT22;50653;47.810;13.022;2023-10-09T11:47:11;22.00;99.90
14397;DHT22;50653;47.810;13.022;2023-10-09T11:49:59;22.20;99.90
14397;DHT22;50653;47.810;13.022;2023-10-09T11:52:32;22.20;99.90
14397;DHT22;50653;47.810;13.022;2023-10-09T11:55:04;22.30;99.90
14397;DHT22;50653;47.810;13.022;2023-10-09T11:57:33;22.20;99.90
14397;DHT22;50653;47.810;13.022;2023-10-09T12:00:01;22.30;99.90
14397;DHT22;50653;47.810;13.022;2023-10-09T12:02:36;22.30;99.90
14397;DHT22;50653;47.810;13.022;2023-10-09T12:05:10;22.40;99.90
14397;DHT22;50653;47.810;13.022;2023-10-09T12:07:46;22.30;99.90
14397;DHT22;50653;47.810;13.022;2023-10-09T12:10:12;22.40;99.90
14397;DHT22;50653;47.810;13.022;2023-10-09T12:12:41;22.50;99.90
14397;DHT22;50653;47.810;13.022;2023-10-09T12:15:12;22.50;99.90
14397;DHT22;50653;47.810;13.022;2023-10-09T12:17:44;22.60;99.90
14397;DHT22;50653;47.810;13.022;2023-10-09T12:20:16;22.60;99.90
14397;DHT22;50653;47.810;13.022;2023-10-09T12:23:02;22.70;99.90
14397;DHT22;50653;47.810;13.022;2023-10-09T12:25:30;22.50;99.90
14397;DHT22;50653;47.810;13.022;2023-10-09T12:27:58;22.60;99.90
14397;DHT22;50653;47.810;13.022;2023-10-09T12:30:30;22.60;99.90
14397;DHT22;50653;47.810;13.022;2023-10-09T12:32:57;22.60;99.90
14397;DHT22;50653;47.810;13.022;2023-10-09T12:35:26;22.70;99.90
14397;DHT22;50653;47.810;13.022;2023-10-09T12:37:55;22.80;99.90
14397;DHT22;50653;47.810;13.022;2023-10-09T12:40:22;22.90;99.90
14397;DHT22;50653;47.810;13.022;2023-10-09T12:42:54;22.90;99.90
14397;DHT22;50653;47.810;13.022;2023-10-09T12:45:25;22.90;99.90
14397;DHT22;50653;47.810;13.022;2023-10-09T12:47:58;22.80;99.90
14397;DHT22;50653;47.810;13.022;2023-10-09T12:50:28;22.60;99.90
14397;DHT22;50653;47.810;13.022;2023-10-09T12:52:57;22.70;99.90
14397;DHT22;50653;47.810;13.022;2023-10-09T12:55:39;22.60;99.90
14397;DHT22;50653;47.810;13.022;2023-10-09T12:58:10;22.50;99.90
14397;DHT22;50653;47.810;13.022;2023-10-09T13:00:40;22.40;99.90
14397;DHT22;50653;47.810;13.022;2023-10-09T13:03:29;22.40;99.90
14397;DHT22;50653;47.810;13.022;2023-10-09T13:05:58;22.30;99.90
14397;DHT22;50653;47.810;13.022;2023-10-09T13:08:26;22.30;99.90
14397;DHT22;50653;47.810;13.022;2023-10-09T13:11:06;22.20;99.90
14397;DHT22;50653;47.810;13.022;2023-10-09T13:13:43;22.30;99.90
14397;DHT22;50653;47.810;13.022;2023-10-09T13:16:11;22.30;99.90
14397;DHT22;50653;47.810;13.022;2023-10-09T13:18:41;22.30;99.90
14397;DHT22;50653;47.810;13.022;2023-10-09T13:21:25;22.30;99.90
14397;DHT22;50653;47.810;13.022;2023-10-09T13:23:52;22.40;99.90
14397;DHT22;50653;47.810;13.022;2023-10-09T13:26:20;22.50;99.90
14397;DHT22;50653;47.810;13.022;2023-10-09T13:28:57;22.40;99.90
14397;DHT22;50653;47.810;13.022;2023-10-09T13:31:24;22.40;99.90
14397;DHT22;50653;47.810;13.022;2023-10-09T13:33:55;22.50;99.90
14397;DHT22;50653;47.810;13.022;2023-10-09T13:36:22;22.40;99.90
14397;DHT22;50653;47.810;13.022;2023-10-09T13:38:59;22.40;99.90
14397;DHT22;50653;47.810;13.022;2023-10-09T13:41:48;22.40;99.90
14397;DHT22;50653;47.810;13.022;2023-10-09T13:44:14;22.30;99.90
14397;DHT22;50653;47.810;13.022;2023-10-09T13:46:40;22.30;99.90
14397;DHT22;50653;47.810;13.022;2023-10-09T13:49:10;22.30;99.90
14397;DHT22;50653;47.810;13.022;2023-10-09T13:51:40;22.20;99.90
14397;DHT22;50653;47.810;13.022;2023-10-09T13:54:15;22.20;99.90
14397;DHT22;50653;47.810;13.022;2023-10-09T13:56:54;22.20;99.90
14397;DHT22;50653;47.810;13.022;2023-10-09T13:59:21;22.10;99.90
14397;DHT22;50653;47.810;13.022;2023-10-09T14:01:54;22.10;99.90
14397;DHT22;50653;47.810;13.022;2023-10-09T14:04:25;22.20;99.90
14397;DHT22;50653;47.810;13.022;2023-10-09T14:06:52;22.00;99.90
14397;DHT22;50653;47.810;13.022;2023-10-09T14:09:25;22.00;99.90
14397;DHT22;50653;47.810;13.022;2023-10-09T14:12:04;22.00;99.90
14397;DHT22;50653;47.810;13.022;2023-10-09T14:14:39;22.00;99.90
14397;DHT22;50653;47.810;13.022;2023-10-09T14:17:18;21.90;99.90
14397;DHT22;50653;47.810;13.022;2023-10-09T14:19:50;21.90;99.90
14397;DHT22;50653;47.810;13.022;2023-10-09T14:22:20;21.90;99.90
14397;DHT22;50653;47.810;13.022;2023-10-09T14:24:47;21.80;99.90
14397;DHT22;50653;47.810;13.022;2023-10-09T14:27:16;21.80;99.90
14397;DHT22;50653;47.810;13.022;2023-10-09T14:29:45;21.80;99.90
14397;DHT22;50653;47.810;13.022;2023-10-09T14:32:12;21.70;99.90
14397;DHT22;50653;47.810;13.022;2023-10-09T14:34:39;21.70;99.90
14397;DHT22;50653;47.810;13.022;2023-10-09T14:37:12;21.60;99.90
14397;DHT22;50653;47.810;13.022;2023-10-09T14:39:41;21.60;99.90
14397;DHT22;50653;47.810;13.022;2023-10-09T14:42:07;21.50;99.90
14397;DHT22;50653;47.810;13.022;2023-10-09T14:44:36;21.50;99.90
14397;DHT22;50653;47.810;13.022;2023-10-09T14:47:06;21.50;99.90
14397;DHT22;50653;47.810;13.022;2023-10-09T14:49:33;21.40;99.90
14397;DHT22;50653;47.810;13.022;2023-10-09T14:52:13;21.40;99.90
14397;DHT22;50653;47.810;13.022;2023-10-09T14:54:43;21.40;99.90
14397;DHT22;50653;47.810;13.022;2023-10-09T14:57:10;21.30;99.90
14397;DHT22;50653;47.810;13.022;2023-10-09T14:59:37;21.30;99.90
14397;DHT22;50653;47.810;13.022;2023-10-09T15:02:03;21.30;99.90
14397;DHT22;50653;47.810;13.022;2023-10-09T15:04:31;21.30;99.90
14397;DHT22;50653;47.810;13.022;2023-10-09T15:07:01;21.20;99.90
14397;DHT22;50653;47.810;13.022;2023-10-09T15:09:27;21.20;99.90
14397;DHT22;50653;47.810;13.022;2023-10-09T15:11:56;21.20;99.90
14397;DHT22;50653;47.810;13.022;2023-10-09T15:14:23;21.20;99.90
14397;DHT22;50653;47.810;13.022;2023-10-09T15:16:49;21.50;97.10
14397;DHT22;50653;47.810;13.022;2023-10-09T15:19:16;21.50;99.40
14397;DHT22;50653;47.810;13.022;2023-10-09T15:21:43;21.40;99.60
14397;DHT22;50653;47.810;13.022;2023-10-09T15:24:13;21.40;99.80
14397;DHT22;50653;47.810;13.022;2023-10-09T15:26:42;21.40;99.90
14397;DHT22;50653;47.810;13.022;2023-10-09T15:29:09;21.30;99.90
14397;DHT22;50653;47.810;13.022;2023-10-09T15:31:36;21.20;99.90
14397;DHT22;50653;47.810;13.022;2023-10-09T15:34:02;21.20;99.90
14397;DHT22;50653;47.810;13.022;2023-10-09T15:36:28;21.10;99.90
14397;DHT22;50653;47.810;13.022;2023-10-09T15:38:56;21.20;99.90
14397;DHT22;50653;47.810;13.022;2023-10-09T15:41:28;21.10;99.90
14397;DHT22;50653;47.810;13.022;2023-10-09T15:43:58;21.10;99.90
14397;DHT22;50653;47.810;13.022;2023-10-09T15:46:24;21.10;99.90
14397;DHT22;50653;47.810;13.022;2023-10-09T15:48:58;21.00;99.90
14397;DHT22;50653;47.810;13.022;2023-10-09T15:51:23;21.00;99.90
14397;DHT22;50653;47.810;13.022;2023-10-09T15:53:51;21.00;99.90
14397;DHT22;50653;47.810;13.022;2023-10-09T15:56:20;21.00;99.90
14397;DHT22;50653;47.810;13.022;2023-10-09T15:58:48;21.00;99.90
14397;DHT22;50653;47.810;13.022;2023-10-09T16:01:16;21.00;99.90
14397;DHT22;50653;47.810;13.022;2023-10-09T16:03:46;20.90;99.90
14397;DHT22;50653;47.810;13.022;2023-10-09T16:06:14;21.00;99.80
14397;DHT22;50653;47.810;13.022;2023-10-09T16:08:47;21.00;99.90
14397;DHT22;50653;47.810;13.022;2023-10-09T16:11:19;20.90;99.90
14397;DHT22;50653;47.810;13.022;2023-10-09T16:13:47;20.80;99.90
14397;DHT22;50653;47.810;13.022;2023-10-09T16:16:13;20.80;99.90
14397;DHT22;50653;47.810;13.022;2023-10-09T16:18:39;20.80;99.90
14397;DHT22;50653;47.810;13.022;2023-10-09T16:21:05;20.70;99.90
14397;DHT22;50653;47.810;13.022;2023-10-09T16:23:34;20.70;99.90
14397;DHT22;50653;47.810;13.022;2023-10-09T16:25:59;20.70;98.70
14397;DHT22;50653;47.810;13.022;2023-10-09T16:28:28;20.70;99.50
14397;DHT22;50653;47.810;13.022;2023-10-09T16:30:54;20.70;99.90
14397;DHT22;50653;47.810;13.022;2023-10-09T16:33:21;20.60;99.90
14397;DHT22;50653;47.810;13.022;2023-10-09T16:35:49;20.60;99.90
14397;DHT22;50653;47.810;13.022;2023-10-09T16:38:16;20.50;99.90
14397;DHT22;50653;47.810;13.022;2023-10-09T16:40:42;20.50;99.90
14397;DHT22;50653;47.810;13.022;2023-10-09T16:43:17;20.50;99.90
14397;DHT22;50653;47.810;13.022;2023-10-09T16:45:43;20.40;99.90
14397;DHT22;50653;47.810;13.022;2023-10-09T16:48:11;20.50;99.90
14397;DHT22;50653;47.810;13.022;2023-10-09T16:50:41;20.40;99.90
14397;DHT22;50653;47.810;13.022;2023-10-09T16:53:06;20.40;99.90
14397;DHT22;50653;47.810;13.022;2023-10-09T16:55:39;20.30;99.90
14397;DHT22;50653;47.810;13.022;2023-10-09T16:58:07;20.30;99.90
14397;DHT22;50653;47.810;13.022;2023-10-09T17:00:33;20.30;99.90
14397;DHT22;50653;47.810;13.022;2023-10-09T17:03:02;20.20;99.90
14397;DHT22;50653;47.810;13.022;2023-10-09T17:05:35;20.10;99.90
14397;DHT22;50653;47.810;13.022;2023-10-09T17:08:24;20.10;99.90
14397;DHT22;50653;47.810;13.022;2023-10-09T17:10:57;20.10;99.90